CSCL Oceania — VRBI2 — position and weather

sailwx.info

Track history (hours):
 
Tides and Currents Weather Stations Pressure Air Temp Water Temp Dewpoint Dewpoint Depression Visibility Wind Speed Wind Dir Waves Ship Positions

CSCL Oceania

Last reported at 2018-Apr-26 20:37 UTC. Time now 2018-Apr-27 03:03 UTC.
Position N 31°02' E 122°53'.

Length 334 m; beam 42.8 m; draft 14.5 m.

Type: Cargo ship. MMSI: 477020300.

Date/timePositionNaut miles runAvg speedWind from/ knotsBaromVisibWave heightAir tempDewpointWater temp
2018-Apr-26 20:37N 31°02' E 122°53'213.5
2018-Apr-26 20:30N 31°04' E 122°53'1013.0
2018-Apr-26 19:43N 31°05' E 122°41'313.4
2018-Apr-26 19:29N 31°05' E 122°38'612.7
2018-Apr-26 18:59N 31°05' E 122°30'5 9.6
2018-Apr-26 18:27N 31°06' E 122°24'612.7
2018-Apr-26 18:00N 31°06' E 122°18'713.5
2018-Apr-26 17:30N 31°10' E 122°11'612.8
2018-Apr-26 17:00N 31°14' E 122°05'612.5
2018-Apr-26 16:30N 31°15' E 121°58'713.5
2018-Apr-26 16:00N 31°17' E 121°50'611.8
2018-Apr-26 15:29N 31°19' E 121°43'4 0.1
2018-Apr-25 13:04N 31°21' E 121°39'1 6.0
2018-Apr-25 12:58N 31°21' E 121°40'5 8.9
2018-Apr-25 12:27N 31°19' E 121°45'510.9
2018-Apr-25 11:59N 31°17' E 121°50'4 8.5
2018-Apr-25 11:30N 31°16' E 121°55'5 9.5
2018-Apr-25 11:00N 31°15' E 122°00'611.5
2018-Apr-25 10:29N 31°13' E 122°07'511.1
2018-Apr-25 10:00N 31°10' E 122°12'5 9.3
2018-Apr-25 09:30N 31°07' E 122°17'4 7.3
2018-Apr-25 08:58N 31°06' E 122°21'4 8.1
2018-Apr-25 08:30N 31°06' E 122°25'4 8.8
2018-Apr-25 08:00N 31°07' E 122°30'3 6.3
2018-Apr-25 07:30N 31°07' E 122°34'  
2018-Apr-18 10:52N 01°15' E 104°02'513.5
2018-Apr-18 10:30N 01°14' E 103°57'713.1
2018-Apr-18 09:59N 01°11' E 103°51'4 7.6
2018-Apr-18 09:30N 01°13' E 103°48'4 7.5
2018-Apr-18 09:00N 01°16' E 103°46'0 0.7
2018-Apr-18 08:30N 01°16' E 103°46'0 0.0
2018-Apr-18 07:57N 01°16' E 103°46'0 0.0
2018-Apr-18 06:25N 01°16' E 103°46'0 0.0
2018-Apr-18 06:01N 01°16' E 103°46'0 0.0
2018-Apr-18 05:31N 01°16' E 103°46'0 0.0
2018-Apr-18 05:00N 01°16' E 103°46'0 0.0
2018-Apr-18 04:30N 01°16' E 103°46'0 0.0
2018-Apr-18 04:00N 01°16' E 103°46'0 0.0
2018-Apr-18 03:30N 01°16' E 103°46'0 0.0
2018-Apr-18 03:00N 01°16' E 103°46'0 0.0
2018-Apr-18 02:30N 01°16' E 103°46'0 0.0
2018-Apr-18 01:57N 01°16' E 103°46'0 0.0
2018-Apr-18 01:30N 01°16' E 103°46'0 0.0
2018-Apr-18 01:00N 01°16' E 103°46'0 0.0
2018-Apr-18 00:30N 01°16' E 103°46'0 0.0
2018-Apr-17 23:57N 01°16' E 103°46'0 0.0
2018-Apr-17 23:30N 01°16' E 103°46'0 0.0
2018-Apr-17 23:00N 01°16' E 103°46'0 0.0
2018-Apr-17 22:30N 01°16' E 103°46'0 0.0
2018-Apr-17 21:57N 01°16' E 103°46'0 0.0
2018-Apr-17 21:28N 01°16' E 103°46'0 0.0
2018-Apr-17 20:55N 01°16' E 103°46'0 0.0
2018-Apr-17 20:28N 01°16' E 103°46'0 0.0
2018-Apr-17 19:58N 01°16' E 103°46'0 0.0
2018-Apr-17 19:28N 01°16' E 103°46'0 0.0
2018-Apr-17 18:58N 01°16' E 103°46'0 0.0
2018-Apr-17 18:28N 01°16' E 103°46'0 0.0
2018-Apr-17 17:58N 01°16' E 103°46'0 0.0
2018-Apr-17 17:28N 01°16' E 103°46'0 0.0
2018-Apr-17 16:58N 01°16' E 103°46'0 0.0
2018-Apr-17 16:28N 01°16' E 103°46'0 0.0
2018-Apr-17 15:58N 01°16' E 103°46'0 0.0
2018-Apr-17 15:28N 01°16' E 103°46'1 1.2
2018-Apr-17 15:00N 01°16' E 103°46'3 5.7
2018-Apr-17 14:30N 01°15' E 103°44'713.2
2018-Apr-17 13:59N 01°12' E 103°37'3 6.1
2018-Apr-17 13:30N 01°12' E 103°34'3 6.2
2018-Apr-17 12:59N 01°11' E 103°31'1 2.9
2018-Apr-17 12:29N 01°10' E 103°30'3 5.1
2018-Apr-17 12:00N 01°10' E 103°28'4 8.1
2018-Apr-17 11:30N 01°12' E 103°24'510.5
2018-Apr-17 11:01N 01°15' E 103°20'611.9
2018-Apr-17 10:30N 01°19' E 103°16'814.9
2018-Apr-17 09:59N 01°24' E 103°09'  
Track history (hours):
 
Tides and Currents Weather Stations Pressure Air Temp Water Temp Dewpoint Dewpoint Depression Visibility Wind Speed Wind Dir Waves Ship Positions

CSCL Oceania

Last reported at 2018-Apr-26 20:37 UTC. Time now 2018-Apr-27 03:03 UTC.
Position N 31°02' E 122°53'.

Length 334 m; beam 42.8 m; draft 14.5 m.

Type: Cargo ship. MMSI: 477020300.

Date/timePositionNaut miles runAvg speedWind from/ knotsBaromVisibWave heightAir tempDewpointWater temp
2018-Apr-26 20:37N 31°02' E 122°53'213.5
2018-Apr-26 20:30N 31°04' E 122°53'1013.0
2018-Apr-26 19:43N 31°05' E 122°41'313.4
2018-Apr-26 19:29N 31°05' E 122°38'612.7
2018-Apr-26 18:59N 31°05' E 122°30'5 9.6
2018-Apr-26 18:27N 31°06' E 122°24'612.7
2018-Apr-26 18:00N 31°06' E 122°18'713.5
2018-Apr-26 17:30N 31°10' E 122°11'612.8
2018-Apr-26 17:00N 31°14' E 122°05'612.5
2018-Apr-26 16:30N 31°15' E 121°58'713.5
2018-Apr-26 16:00N 31°17' E 121°50'611.8
2018-Apr-26 15:29N 31°19' E 121°43'4 0.1
2018-Apr-25 13:04N 31°21' E 121°39'1 6.0
2018-Apr-25 12:58N 31°21' E 121°40'5 8.9
2018-Apr-25 12:27N 31°19' E 121°45'510.9
2018-Apr-25 11:59N 31°17' E 121°50'4 8.5
2018-Apr-25 11:30N 31°16' E 121°55'5 9.5
2018-Apr-25 11:00N 31°15' E 122°00'611.5
2018-Apr-25 10:29N 31°13' E 122°07'511.1
2018-Apr-25 10:00N 31°10' E 122°12'5 9.3
2018-Apr-25 09:30N 31°07' E 122°17'4 7.3
2018-Apr-25 08:58N 31°06' E 122°21'4 8.1
2018-Apr-25 08:30N 31°06' E 122°25'4 8.8
2018-Apr-25 08:00N 31°07' E 122°30'3 6.3
2018-Apr-25 07:30N 31°07' E 122°34'  
2018-Apr-18 10:52N 01°15' E 104°02'513.5
2018-Apr-18 10:30N 01°14' E 103°57'713.1
2018-Apr-18 09:59N 01°11' E 103°51'4 7.6
2018-Apr-18 09:30N 01°13' E 103°48'4 7.5
2018-Apr-18 09:00N 01°16' E 103°46'0 0.7
2018-Apr-18 08:30N 01°16' E 103°46'0 0.0
2018-Apr-18 07:57N 01°16' E 103°46'0 0.0
2018-Apr-18 06:25N 01°16' E 103°46'0 0.0
2018-Apr-18 06:01N 01°16' E 103°46'0 0.0
2018-Apr-18 05:31N 01°16' E 103°46'0 0.0
2018-Apr-18 05:00N 01°16' E 103°46'0 0.0
2018-Apr-18 04:30N 01°16' E 103°46'0 0.0
2018-Apr-18 04:00N 01°16' E 103°46'0 0.0
2018-Apr-18 03:30N 01°16' E 103°46'0 0.0
2018-Apr-18 03:00N 01°16' E 103°46'0 0.0
2018-Apr-18 02:30N 01°16' E 103°46'0 0.0
2018-Apr-18 01:57N 01°16' E 103°46'0 0.0
2018-Apr-18 01:30N 01°16' E 103°46'0 0.0
2018-Apr-18 01:00N 01°16' E 103°46'0 0.0
2018-Apr-18 00:30N 01°16' E 103°46'0 0.0
2018-Apr-17 23:57N 01°16' E 103°46'0 0.0
2018-Apr-17 23:30N 01°16' E 103°46'0 0.0
2018-Apr-17 23:00N 01°16' E 103°46'0 0.0
2018-Apr-17 22:30N 01°16' E 103°46'0 0.0
2018-Apr-17 21:57N 01°16' E 103°46'0 0.0
2018-Apr-17 21:28N 01°16' E 103°46'0 0.0
2018-Apr-17 20:55N 01°16' E 103°46'0 0.0
2018-Apr-17 20:28N 01°16' E 103°46'0 0.0
2018-Apr-17 19:58N 01°16' E 103°46'0 0.0
2018-Apr-17 19:28N 01°16' E 103°46'0 0.0
2018-Apr-17 18:58N 01°16' E 103°46'0 0.0
2018-Apr-17 18:28N 01°16' E 103°46'0 0.0
2018-Apr-17 17:58N 01°16' E 103°46'0 0.0
2018-Apr-17 17:28N 01°16' E 103°46'0 0.0
2018-Apr-17 16:58N 01°16' E 103°46'0 0.0
2018-Apr-17 16:28N 01°16' E 103°46'0 0.0
2018-Apr-17 15:58N 01°16' E 103°46'0 0.0
2018-Apr-17 15:28N 01°16' E 103°46'1 1.2
2018-Apr-17 15:00N 01°16' E 103°46'3 5.7
2018-Apr-17 14:30N 01°15' E 103°44'713.2
2018-Apr-17 13:59N 01°12' E 103°37'3 6.1
2018-Apr-17 13:30N 01°12' E 103°34'3 6.2
2018-Apr-17 12:59N 01°11' E 103°31'1 2.9
2018-Apr-17 12:29N 01°10' E 103°30'3 5.1
2018-Apr-17 12:00N 01°10' E 103°28'4 8.1
2018-Apr-17 11:30N 01°12' E 103°24'510.5
2018-Apr-17 11:01N 01°15' E 103°20'611.9
2018-Apr-17 10:30N 01°19' E 103°16'814.9
2018-Apr-17 09:59N 01°24' E 103°09'  

Dump ship's entire track history